createdAt,value
2018-10-17T00:00:31.510Z,14.30
2018-10-17T00:02:59.278Z,14.30
2018-10-17T00:05:26.941Z,14.30
2018-10-17T00:07:54.662Z,14.30
2018-10-17T00:10:22.358Z,14.40
2018-10-17T00:12:50.096Z,14.50
2018-10-17T00:15:17.808Z,14.50
2018-10-17T00:17:45.555Z,14.50
2018-10-17T00:20:13.330Z,14.60
2018-10-17T00:22:41.058Z,14.60
2018-10-17T00:25:08.835Z,14.60
2018-10-17T00:27:36.545Z,14.50
2018-10-17T00:30:05.979Z,14.60
2018-10-17T00:32:33.718Z,14.60
2018-10-17T00:37:29.024Z,14.40
2018-10-17T00:39:56.705Z,14.40
2018-10-17T00:42:24.433Z,14.40
2018-10-17T00:44:52.144Z,14.50
2018-10-17T00:47:19.796Z,14.40
2018-10-17T00:49:47.508Z,14.40
2018-10-17T00:52:15.208Z,14.40
2018-10-17T00:54:42.910Z,14.30
2018-10-17T00:57:10.591Z,14.30
2018-10-17T00:59:38.255Z,14.30
2018-10-17T01:02:06.018Z,14.30
2018-10-17T01:04:33.732Z,14.20
2018-10-17T01:07:01.438Z,14.20
2018-10-17T01:09:29.180Z,14.20
2018-10-17T01:14:24.452Z,14.20
2018-10-17T01:16:53.876Z,14.20
2018-10-17T01:19:21.600Z,14.30
2018-10-17T01:21:49.316Z,14.30
2018-10-17T01:24:17.013Z,14.30
2018-10-17T01:26:44.695Z,14.40
2018-10-17T01:29:12.485Z,14.40
2018-10-17T01:31:40.110Z,14.50
2018-10-17T01:34:07.828Z,14.50
2018-10-17T01:36:35.512Z,14.50
2018-10-17T01:39:04.213Z,14.40
2018-10-17T01:41:31.893Z,14.40
2018-10-17T01:43:59.601Z,14.20
2018-10-17T01:46:27.321Z,14.20
2018-10-17T01:48:55.391Z,14.10
2018-10-17T01:51:23.106Z,14.00
2018-10-17T01:53:51.681Z,13.90
2018-10-17T01:56:19.504Z,13.80
2018-10-17T02:01:15.306Z,13.70
2018-10-17T02:03:42.995Z,13.60
2018-10-17T02:06:10.657Z,13.50
2018-10-17T02:08:38.410Z,13.50
2018-10-17T02:11:06.153Z,13.40
2018-10-17T02:13:33.831Z,13.40
2018-10-17T02:16:01.579Z,13.40
2018-10-17T02:18:29.293Z,13.40
2018-10-17T02:20:57.010Z,13.40
2018-10-17T02:23:24.657Z,13.40
2018-10-17T02:28:19.973Z,13.30
2018-10-17T02:30:47.697Z,13.30
2018-10-17T02:33:15.395Z,13.30
2018-10-17T02:35:43.092Z,13.20
2018-10-17T02:38:10.810Z,13.20
2018-10-17T02:40:38.512Z,13.50
2018-10-17T02:43:06.272Z,13.20
2018-10-17T02:45:33.917Z,13.20
2018-10-17T02:48:01.714Z,13.20
2018-10-17T02:50:29.415Z,13.10
2018-10-17T02:52:57.146Z,13.30
2018-10-17T02:55:24.938Z,13.10
2018-10-17T02:57:52.687Z,13.10
2018-10-17T03:00:20.345Z,13.10
2018-10-17T03:02:48.049Z,13.10
2018-10-17T03:05:15.788Z,13.10
2018-10-17T03:07:43.468Z,13.10
2018-10-17T03:10:11.173Z,13.10
2018-10-17T03:12:38.956Z,13.00
2018-10-17T03:15:07.434Z,13.00
2018-10-17T03:17:35.260Z,13.00
2018-10-17T03:20:03.069Z,13.00
2018-10-17T03:22:30.805Z,13.00
2018-10-17T03:24:58.472Z,12.90
2018-10-17T03:27:26.239Z,12.80
2018-10-17T03:29:53.931Z,12.80
2018-10-17T03:32:21.744Z,12.70
2018-10-17T03:34:49.364Z,12.70
2018-10-17T03:37:17.176Z,12.70
2018-10-17T03:39:44.806Z,12.60
2018-10-17T03:42:12.541Z,12.50
2018-10-17T03:44:40.210Z,12.50
2018-10-17T03:47:07.948Z,12.50
2018-10-17T03:49:35.700Z,12.40
2018-10-17T03:52:03.782Z,12.40
2018-10-17T03:54:31.482Z,12.30
2018-10-17T03:56:59.175Z,12.30
2018-10-17T03:59:26.995Z,12.30
2018-10-17T04:01:54.627Z,12.30
2018-10-17T04:04:22.357Z,12.30
2018-10-17T04:06:50.072Z,12.20
2018-10-17T04:09:17.794Z,12.20
2018-10-17T04:11:45.485Z,12.20
2018-10-17T04:14:13.188Z,12.10
2018-10-17T04:16:40.857Z,12.20
2018-10-17T04:19:08.649Z,12.10
2018-10-17T04:21:36.306Z,12.20
2018-10-17T04:24:04.110Z,12.20
2018-10-17T04:26:31.848Z,12.20
2018-10-17T04:28:59.586Z,12.10
2018-10-17T04:31:27.375Z,12.10
2018-10-17T04:33:55.074Z,12.10
2018-10-17T04:36:22.907Z,12.20
2018-10-17T04:38:50.569Z,12.10
2018-10-17T04:41:18.357Z,12.20
2018-10-17T04:43:46.029Z,12.10
2018-10-17T04:46:13.819Z,12.20
2018-10-17T04:48:41.588Z,12.10
2018-10-17T04:51:10.595Z,12.20
2018-10-17T04:53:38.281Z,12.30
2018-10-17T04:56:05.999Z,12.30
2018-10-17T04:58:33.698Z,12.40
2018-10-17T05:01:01.465Z,12.40
2018-10-17T05:03:29.147Z,12.40
2018-10-17T05:05:57.172Z,12.50
2018-10-17T05:08:24.941Z,12.50
2018-10-17T05:10:52.651Z,12.50
2018-10-17T05:13:20.443Z,12.50
2018-10-17T05:15:48.178Z,12.50
2018-10-17T05:18:15.948Z,12.40
2018-10-17T05:20:43.660Z,12.40
2018-10-17T05:23:11.451Z,12.40
2018-10-17T05:25:39.150Z,12.40
2018-10-17T05:28:07.220Z,12.30
2018-10-17T05:30:35.306Z,12.30
2018-10-17T05:33:03.047Z,12.30
2018-10-17T05:35:30.817Z,12.30
2018-10-17T05:37:58.531Z,12.30
2018-10-17T05:40:26.293Z,12.30
2018-10-17T05:42:53.990Z,12.30
2018-10-17T05:45:21.667Z,12.20
2018-10-17T05:47:49.361Z,12.20
2018-10-17T05:50:17.057Z,12.20
2018-10-17T05:52:44.716Z,12.20
2018-10-17T05:55:12.504Z,12.20
2018-10-17T05:57:40.130Z,12.20
2018-10-17T06:00:08.217Z,12.20
2018-10-17T06:02:36.935Z,12.20
2018-10-17T06:05:05.624Z,12.20
2018-10-17T06:07:33.276Z,12.20
2018-10-17T06:10:01.035Z,12.10
2018-10-17T06:12:28.785Z,12.10
2018-10-17T06:14:56.494Z,12.10
2018-10-17T06:17:24.215Z,12.10
2018-10-17T06:19:51.962Z,12.20
2018-10-17T06:22:19.694Z,12.20
2018-10-17T06:24:47.409Z,12.20
2018-10-17T06:27:15.094Z,12.30
2018-10-17T06:32:10.443Z,12.30
2018-10-17T06:34:38.290Z,12.30
2018-10-17T06:37:06.465Z,12.30
2018-10-17T06:39:34.224Z,12.30
2018-10-17T06:42:02.022Z,12.40
2018-10-17T06:44:29.774Z,12.50
2018-10-17T06:46:57.539Z,12.50
2018-10-17T06:49:25.275Z,12.50
2018-10-17T06:51:53.040Z,12.60
2018-10-17T06:54:20.798Z,12.60
2018-10-17T06:56:48.456Z,12.70
2018-10-17T06:59:16.223Z,12.80
2018-10-17T07:01:44.343Z,12.90
2018-10-17T07:04:12.488Z,13.00
2018-10-17T07:06:40.597Z,13.10
2018-10-17T07:09:09.569Z,13.10
2018-10-17T07:11:37.970Z,13.10
2018-10-17T07:14:06.095Z,13.10
2018-10-17T07:16:34.295Z,13.20
2018-10-17T07:19:04.220Z,13.30
2018-10-17T07:21:32.340Z,13.30
2018-10-17T07:24:00.332Z,13.40
2018-10-17T07:26:28.554Z,13.40
2018-10-17T07:28:56.739Z,13.50
2018-10-17T07:31:24.855Z,13.50
2018-10-17T07:33:52.762Z,13.60
2018-10-17T07:36:20.790Z,13.70
2018-10-17T07:41:16.675Z,13.90
2018-10-17T07:43:44.638Z,13.90
2018-10-17T07:46:12.745Z,14.00
2018-10-17T07:48:40.764Z,14.00
2018-10-17T07:51:08.526Z,14.20
2018-10-17T07:53:36.345Z,14.30
2018-10-17T07:56:04.210Z,14.50
2018-10-17T07:58:32.265Z,14.50
2018-10-17T08:01:02.585Z,14.70
2018-10-17T08:03:30.333Z,14.90
2018-10-17T08:05:58.030Z,15.10
2018-10-17T08:08:25.763Z,15.10
2018-10-17T08:10:53.461Z,15.20
2018-10-17T08:13:21.154Z,15.30
2018-10-17T08:15:48.806Z,15.50
2018-10-17T08:18:16.924Z,15.70
2018-10-17T08:20:44.669Z,15.80
2018-10-17T08:23:12.404Z,15.80
2018-10-17T08:25:40.117Z,16.10
2018-10-17T08:28:07.822Z,16.10
2018-10-17T08:30:35.483Z,16.10
2018-10-17T08:33:03.190Z,16.20
2018-10-17T08:35:30.983Z,16.20
2018-10-17T08:37:58.564Z,16.40
2018-10-17T08:40:26.266Z,16.80
2018-10-17T08:42:53.960Z,16.80
2018-10-17T08:45:21.976Z,16.80
2018-10-17T08:47:49.681Z,16.80
2018-10-17T08:50:17.511Z,17.10
2018-10-17T08:52:45.220Z,17.10
2018-10-17T08:55:12.891Z,17.90
2018-10-17T08:57:40.626Z,18.10
2018-10-17T09:00:08.524Z,18.60
2018-10-17T09:02:36.260Z,19.10
2018-10-17T09:05:04.117Z,19.50
2018-10-17T09:07:31.891Z,20.10
2018-10-17T09:09:59.760Z,21.20
2018-10-17T09:12:27.775Z,21.50
2018-10-17T09:14:55.508Z,21.40
2018-10-17T09:17:25.080Z,21.50
2018-10-17T09:19:53.687Z,21.50
2018-10-17T09:22:21.513Z,22.20
2018-10-17T09:24:49.010Z,23.00
2018-10-17T09:27:16.769Z,22.70
2018-10-17T09:29:46.428Z,23.60
2018-10-17T09:32:14.138Z,23.80
2018-10-17T09:34:41.825Z,23.90
2018-10-17T09:37:09.497Z,23.50
2018-10-17T09:39:37.218Z,24.30
2018-10-17T09:42:04.967Z,25.00
2018-10-17T09:44:32.660Z,25.50
2018-10-17T09:47:00.348Z,26.30
2018-10-17T09:49:28.033Z,26.50
2018-10-17T09:51:55.768Z,26.10
2018-10-17T09:54:23.545Z,26.50
2018-10-17T09:56:51.241Z,26.70
2018-10-17T09:59:18.935Z,27.00
2018-10-17T10:01:50.090Z,27.40
2018-10-17T10:04:18.089Z,27.50
2018-10-17T10:06:45.989Z,27.30
2018-10-17T10:09:13.656Z,27.30
2018-10-17T10:11:41.386Z,27.30
2018-10-17T10:14:09.166Z,27.50
2018-10-17T10:16:36.941Z,27.00
2018-10-17T10:19:05.417Z,26.40
2018-10-17T10:21:33.119Z,26.90
2018-10-17T10:24:01.209Z,27.30
2018-10-17T10:26:29.099Z,26.40
2018-10-17T10:28:56.781Z,26.20
2018-10-17T10:31:24.695Z,27.00
2018-10-17T10:33:52.502Z,27.20
2018-10-17T10:36:20.208Z,27.10
2018-10-17T10:38:47.953Z,27.50
2018-10-17T10:41:15.755Z,27.70
2018-10-17T10:43:43.654Z,27.90
2018-10-17T10:46:11.396Z,28.10
2018-10-17T10:48:39.074Z,28.00
2018-10-17T10:51:07.356Z,27.80
2018-10-17T10:53:35.103Z,27.80
2018-10-17T10:56:03.123Z,27.10
2018-10-17T10:58:30.946Z,27.50
2018-10-17T11:00:59.497Z,27.90
2018-10-17T11:03:27.193Z,28.10
2018-10-17T11:05:54.979Z,27.90
2018-10-17T11:08:23.150Z,28.20
2018-10-17T11:10:52.081Z,28.10
2018-10-17T11:13:19.876Z,28.20
2018-10-17T11:15:47.549Z,28.60
2018-10-17T11:18:15.179Z,28.10
2018-10-17T11:20:42.965Z,27.50
2018-10-17T11:23:11.279Z,27.50
2018-10-17T11:25:38.938Z,27.30
2018-10-17T11:28:06.584Z,27.40
2018-10-17T11:30:34.554Z,27.10
2018-10-17T11:33:02.335Z,26.80
2018-10-17T11:35:30.038Z,26.20
2018-10-17T11:37:57.814Z,25.80
2018-10-17T11:40:25.634Z,25.30
2018-10-17T11:42:53.244Z,24.60
2018-10-17T11:45:20.961Z,24.20
2018-10-17T11:47:48.816Z,23.80
2018-10-17T11:50:16.442Z,23.70
2018-10-17T11:52:46.447Z,23.40
2018-10-17T11:55:14.134Z,23.40
2018-10-17T11:57:41.782Z,23.50
2018-10-17T12:00:11.210Z,23.20
2018-10-17T12:02:38.904Z,23.30
2018-10-17T12:05:09.232Z,23.40
2018-10-17T12:07:36.653Z,23.60
2018-10-17T12:10:05.066Z,23.70
2018-10-17T12:12:32.842Z,23.80
2018-10-17T12:15:00.653Z,24.10
2018-10-17T12:17:28.380Z,24.30
2018-10-17T12:19:56.202Z,24.40
2018-10-17T12:22:23.783Z,24.20
2018-10-17T12:24:51.442Z,24.40
2018-10-17T12:27:19.373Z,24.40
2018-10-17T12:29:47.167Z,24.10
2018-10-17T12:32:14.932Z,24.00
2018-10-17T12:34:42.836Z,24.00
2018-10-17T12:37:10.635Z,23.90
2018-10-17T12:39:38.398Z,23.60
2018-10-17T12:42:06.010Z,23.60
2018-10-17T12:44:33.787Z,23.50
2018-10-17T12:47:01.528Z,23.20
2018-10-17T12:49:29.192Z,23.20
2018-10-17T12:51:56.859Z,23.30
2018-10-17T12:54:25.033Z,23.20
2018-10-17T12:56:52.708Z,23.30
2018-10-17T12:59:20.602Z,23.50
2018-10-17T13:01:48.195Z,23.60
2018-10-17T13:04:15.887Z,23.60
2018-10-17T13:06:43.601Z,23.70
2018-10-17T13:09:12.083Z,23.90
2018-10-17T13:11:39.840Z,23.80
2018-10-17T13:14:07.726Z,24.00
2018-10-17T13:16:35.496Z,24.10
2018-10-17T13:19:03.335Z,24.20
2018-10-17T13:21:31.125Z,24.20
2018-10-17T13:23:59.304Z,24.30
2018-10-17T13:26:27.009Z,24.40
2018-10-17T13:28:54.687Z,24.30
2018-10-17T13:31:22.604Z,24.40
2018-10-17T13:33:50.263Z,24.30
2018-10-17T13:36:17.955Z,24.00
2018-10-17T13:38:45.598Z,24.10
2018-10-17T13:41:13.376Z,24.30
2018-10-17T13:43:41.046Z,24.40
2018-10-17T13:46:08.732Z,24.50
2018-10-17T13:48:36.441Z,24.80
2018-10-17T13:51:04.296Z,24.90
2018-10-17T13:53:31.949Z,24.50
2018-10-17T13:55:59.653Z,24.80
2018-10-17T13:58:29.922Z,25.10
2018-10-17T14:00:57.655Z,25.00
2018-10-17T14:03:25.329Z,25.00
2018-10-17T14:05:53.113Z,24.80
2018-10-17T14:08:20.793Z,24.50
2018-10-17T14:10:48.533Z,24.30
2018-10-17T14:13:16.315Z,24.20
2018-10-17T14:15:44.086Z,24.10
2018-10-17T14:18:11.874Z,24.10
2018-10-17T14:20:40.853Z,24.10
2018-10-17T14:23:09.618Z,24.00
2018-10-17T14:25:37.501Z,23.90
2018-10-17T14:28:05.490Z,23.80
2018-10-17T14:30:34.339Z,23.80
2018-10-17T14:33:02.519Z,23.70
2018-10-17T14:35:30.382Z,23.70
2018-10-17T14:37:58.227Z,23.60
2018-10-17T14:40:25.950Z,23.40
2018-10-17T14:42:53.729Z,23.40
2018-10-17T14:45:21.504Z,23.30
2018-10-17T14:47:49.226Z,23.30
2018-10-17T14:50:17.039Z,23.40
2018-10-17T14:52:44.888Z,23.50
2018-10-17T14:55:12.759Z,23.60
2018-10-17T14:57:40.636Z,23.70
2018-10-17T15:00:12.035Z,23.70
2018-10-17T15:02:40.388Z,23.80
2018-10-17T15:05:08.440Z,24.00
2018-10-17T15:07:36.133Z,24.10
2018-10-17T15:10:04.095Z,24.40
2018-10-17T15:12:31.838Z,24.50
2018-10-17T15:14:59.667Z,24.40
2018-10-17T15:17:27.775Z,23.90
2018-10-17T15:19:55.578Z,23.60
2018-10-17T15:22:23.371Z,23.20
2018-10-17T15:24:51.122Z,22.90
2018-10-17T15:27:19.093Z,22.70
2018-10-17T15:29:46.908Z,22.50
2018-10-17T15:32:14.633Z,22.30
2018-10-17T15:34:42.580Z,22.10
2018-10-17T15:37:10.477Z,21.90
2018-10-17T15:39:38.268Z,21.70
2018-10-17T15:42:06.001Z,21.60
2018-10-17T15:44:33.731Z,21.40
2018-10-17T15:47:01.523Z,21.30
2018-10-17T15:49:29.621Z,21.10
2018-10-17T15:51:57.809Z,20.80
2018-10-17T15:54:26.643Z,20.80
2018-10-17T15:56:54.855Z,20.70
2018-10-17T15:59:22.695Z,20.60
2018-10-17T16:01:50.484Z,20.40
2018-10-17T16:06:46.279Z,20.20
2018-10-17T16:09:14.068Z,20.10
2018-10-17T16:11:41.924Z,20.10
2018-10-17T16:14:10.009Z,19.80
2018-10-17T16:19:05.689Z,19.60
2018-10-17T16:21:33.483Z,19.60
2018-10-17T16:24:01.437Z,19.60
2018-10-17T16:26:29.204Z,19.40
2018-10-17T16:28:57.068Z,19.30
2018-10-17T16:31:24.770Z,19.30
2018-10-17T16:33:52.670Z,19.00
2018-10-17T16:36:20.750Z,18.80
2018-10-17T16:38:48.453Z,18.70
2018-10-17T16:41:16.255Z,18.50
2018-10-17T16:43:43.958Z,18.40
2018-10-17T16:46:11.732Z,18.30
2018-10-17T16:48:40.204Z,18.30
2018-10-17T16:51:07.952Z,18.30
2018-10-17T16:53:36.263Z,18.30
2018-10-17T16:56:04.284Z,18.40
2018-10-17T16:58:32.483Z,18.40
2018-10-17T17:01:00.235Z,18.40
2018-10-17T17:03:28.062Z,18.30
2018-10-17T17:05:55.878Z,18.30
2018-10-17T17:08:24.576Z,18.20
2018-10-17T17:10:52.371Z,18.10
2018-10-17T17:13:21.960Z,18.10
2018-10-17T17:15:49.859Z,18.10
2018-10-17T17:18:17.637Z,18.10
2018-10-17T17:20:45.373Z,18.00
2018-10-17T17:23:14.006Z,18.00
2018-10-17T17:25:42.068Z,18.00
2018-10-17T17:28:09.796Z,17.90
2018-10-17T17:30:37.856Z,17.90
2018-10-17T17:33:06.325Z,16.80
2018-10-17T17:35:34.059Z,17.80
2018-10-17T17:38:01.780Z,17.80
2018-10-17T17:40:29.575Z,17.90
2018-10-17T17:42:57.329Z,17.80
2018-10-17T17:45:25.073Z,17.80
2018-10-17T17:47:53.188Z,17.70
2018-10-17T17:50:21.210Z,17.70
2018-10-17T17:52:49.915Z,17.70
2018-10-17T17:55:20.990Z,17.70
2018-10-17T17:57:49.354Z,17.50
2018-10-17T18:00:17.419Z,17.50
2018-10-17T18:02:45.401Z,17.50
2018-10-17T18:05:13.593Z,17.40
2018-10-17T18:07:41.499Z,17.40
2018-10-17T18:10:09.702Z,17.30
2018-10-17T18:12:37.712Z,17.30
2018-10-17T18:15:06.401Z,17.30
2018-10-17T18:17:34.407Z,17.20
2018-10-17T18:20:02.817Z,17.10
2018-10-17T18:22:30.819Z,16.80
2018-10-17T18:24:58.536Z,16.80
2018-10-17T18:27:26.398Z,16.70
2018-10-17T18:29:54.153Z,16.50
2018-10-17T18:32:21.837Z,16.50
2018-10-17T18:34:49.590Z,16.40
2018-10-17T18:37:17.369Z,16.30
2018-10-17T18:39:45.205Z,16.30
2018-10-17T18:42:13.362Z,16.20
2018-10-17T18:44:41.077Z,16.10
2018-10-17T18:47:09.741Z,16.00
2018-10-17T18:49:37.509Z,15.80
2018-10-17T18:52:05.575Z,15.80
2018-10-17T18:54:33.241Z,15.80
2018-10-17T18:57:00.923Z,15.70
2018-10-17T18:59:28.923Z,15.70
2018-10-17T19:01:56.622Z,15.60
2018-10-17T19:04:24.297Z,15.60
2018-10-17T19:06:52.044Z,15.60
2018-10-17T19:09:19.696Z,15.50
2018-10-17T19:11:47.391Z,15.50
2018-10-17T19:14:15.045Z,15.50
2018-10-17T19:16:42.762Z,15.50
2018-10-17T19:19:10.680Z,15.40
2018-10-17T19:21:40.634Z,15.40
2018-10-17T19:24:08.362Z,15.40
2018-10-17T19:26:36.187Z,15.40
2018-10-17T19:29:04.219Z,15.40
2018-10-17T19:31:32.045Z,15.40
2018-10-17T19:34:00.133Z,15.50
2018-10-17T19:36:27.948Z,15.50
2018-10-17T19:38:57.551Z,15.50
2018-10-17T19:41:25.387Z,15.50
2018-10-17T19:43:53.228Z,15.50
2018-10-17T19:46:20.987Z,15.50
2018-10-17T19:48:49.029Z,15.40
2018-10-17T19:51:16.836Z,15.30
2018-10-17T19:53:44.537Z,15.30
2018-10-17T19:56:13.184Z,15.20
2018-10-17T19:58:41.425Z,15.20
2018-10-17T20:01:09.105Z,15.20
2018-10-17T20:03:36.791Z,15.20
2018-10-17T20:06:04.646Z,15.20
2018-10-17T20:08:32.336Z,15.20
2018-10-17T20:11:00.019Z,15.20
2018-10-17T20:13:27.712Z,15.20
2018-10-17T20:15:55.473Z,15.20
2018-10-17T20:18:23.625Z,15.20
2018-10-17T20:20:51.307Z,14.60
2018-10-17T20:23:19.846Z,15.20
2018-10-17T20:25:47.575Z,15.10
2018-10-17T20:28:18.027Z,15.10
2018-10-17T20:30:45.844Z,15.00
2018-10-17T20:33:13.782Z,15.00
2018-10-17T20:35:41.474Z,14.90
2018-10-17T20:38:09.108Z,14.90
2018-10-17T20:40:37.865Z,14.80
2018-10-17T20:43:05.609Z,14.80
2018-10-17T20:45:33.405Z,14.70
2018-10-17T20:48:01.478Z,14.70
2018-10-17T20:50:29.204Z,14.70
2018-10-17T20:52:56.975Z,14.70
2018-10-17T20:55:24.687Z,14.70
2018-10-17T20:57:52.371Z,14.70
2018-10-17T21:00:20.013Z,14.70
2018-10-17T21:02:47.757Z,14.70
2018-10-17T21:05:15.459Z,14.70
2018-10-17T21:07:43.169Z,14.70
2018-10-17T21:10:10.883Z,14.70
2018-10-17T21:12:38.516Z,14.70
2018-10-17T21:15:07.035Z,14.70
2018-10-17T21:17:34.672Z,14.70
2018-10-17T21:22:30.038Z,14.80
2018-10-17T21:24:57.721Z,14.70
2018-10-17T21:27:25.366Z,14.70
2018-10-17T21:29:53.055Z,14.70
2018-10-17T21:32:22.021Z,14.60
2018-10-17T21:34:49.693Z,14.60
2018-10-17T21:37:17.342Z,14.50
2018-10-17T21:39:45.046Z,14.50
2018-10-17T21:42:12.704Z,14.60
2018-10-17T21:44:40.342Z,14.60
2018-10-17T21:47:08.060Z,14.60
2018-10-17T21:49:35.714Z,14.60
2018-10-17T21:52:03.530Z,14.60
2018-10-17T21:54:31.177Z,14.50
2018-10-17T21:56:58.836Z,14.50
2018-10-17T21:59:26.584Z,14.50
2018-10-17T22:01:54.325Z,14.50
2018-10-17T22:04:22.004Z,14.40
2018-10-17T22:06:49.753Z,14.40
2018-10-17T22:09:17.419Z,14.40
2018-10-17T22:11:45.090Z,14.40
2018-10-17T22:14:13.470Z,14.40
2018-10-17T22:16:46.669Z,14.40
2018-10-17T22:19:14.477Z,14.30
2018-10-17T22:21:42.075Z,14.30
2018-10-17T22:24:09.774Z,14.20
2018-10-17T22:26:37.489Z,14.30
2018-10-17T22:29:05.271Z,14.20
2018-10-17T22:31:32.996Z,14.20
2018-10-17T22:34:00.631Z,14.10
2018-10-17T22:36:28.292Z,14.10
2018-10-17T22:38:55.951Z,14.10
2018-10-17T22:41:23.713Z,14.00
2018-10-17T22:43:51.445Z,14.00
2018-10-17T22:46:19.194Z,14.00
2018-10-17T22:48:46.914Z,14.00
2018-10-17T22:51:14.632Z,14.00
2018-10-17T22:53:42.285Z,14.00
2018-10-17T22:56:10.028Z,13.90
2018-10-17T22:58:37.654Z,13.90
2018-10-17T23:01:05.923Z,13.90
2018-10-17T23:08:28.758Z,13.90
2018-10-17T23:10:56.460Z,13.90
2018-10-17T23:13:24.105Z,13.80
2018-10-17T23:15:51.864Z,13.70
2018-10-17T23:18:19.533Z,13.70
2018-10-17T23:20:47.174Z,13.70
2018-10-17T23:23:14.911Z,13.70
2018-10-17T23:25:42.637Z,13.60
2018-10-17T23:28:10.323Z,13.60
2018-10-17T23:33:05.575Z,13.60
2018-10-17T23:35:33.242Z,13.70
2018-10-17T23:38:00.945Z,13.60
2018-10-17T23:40:28.582Z,13.60
2018-10-17T23:42:56.256Z,13.60
2018-10-17T23:45:23.906Z,13.60
2018-10-17T23:47:51.635Z,13.60
2018-10-17T23:52:46.900Z,13.50
2018-10-17T23:55:14.582Z,13.60
2018-10-17T23:57:42.288Z,13.50
